Time;durP1;ratioP1;P1;durP2;ratioP2;P2;SDS_P1;SDS_P2;PMS_P1;PMS_P2;Temp;Humidity;BMP_temperature;BMP_pressure;BME280_temperature;BME280_humidity;BME280_pressure;Samples;Min_cycle;Max_cycle;Signal;HPM_P1;HPM_P2
2022/09/12 00:00:04;;;;;;;7.65;4.53;;;;;;;6.93;100.00;93231.72;2124761;27;20027;-78
2022/09/12 00:01:11;;;;;;;5.82;5.20;;;;;;;6.97;100.00;93235.88;2122213;27;20027;-78
2022/09/12 00:02:15;;;;;;;5.15;4.65;;;;;;;6.89;100.00;93228.31;2113681;28;20413;-76
2022/09/12 00:03:16;;;;;;;5.35;4.63;;;;;;;6.90;100.00;93230.59;2114333;27;20132;-77
2022/09/12 00:04:17;;;;;;;7.28;4.38;;;;;;;6.95;100.00;93226.78;2122720;27;20485;-78
2022/09/12 00:05:18;;;;;;;6.30;4.72;;;;;;;6.89;100.00;93228.31;2122007;27;20102;-77
2022/09/12 00:06:22;;;;;;;13.70;5.07;;;;;;;6.79;100.00;93221.94;2118820;27;20027;-78
2022/09/12 00:07:23;;;;;;;8.75;4.45;;;;;;;6.82;100.00;93223.81;2113975;27;20035;-80
2022/09/12 00:08:25;;;;;;;6.35;4.30;;;;;;;6.82;100.00;93227.22;2114761;28;20317;-77
2022/09/12 00:09:26;;;;;;;8.45;5.05;;;;;;;6.82;100.00;93224.56;2124672;27;20034;-77
2022/09/12 00:10:26;;;;;;;8.35;5.10;;;;;;;6.81;100.00;93222.31;2124108;27;20050;-78
2022/09/12 00:11:28;;;;;;;5.70;4.90;;;;;;;6.81;100.00;93219.66;2120030;27;20045;-77
2022/09/12 00:12:29;;;;;;;7.32;4.78;;;;;;;6.78;100.00;93217.78;2123038;27;20385;-78
2022/09/12 00:13:29;;;;;;;6.90;4.95;;;;;;;6.79;100.00;93214.72;2124453;27;20055;-80
2022/09/12 00:14:30;;;;;;;6.47;4.47;;;;;;;6.92;100.00;93217.69;2124157;27;20078;-79
2022/09/12 00:15:32;;;;;;;5.50;4.82;;;;;;;6.92;100.00;93214.25;2123067;27;20169;-79
2022/09/12 00:16:35;;;;;;;5.47;4.82;;;;;;;6.91;100.00;93215.41;2118441;27;20063;-77
2022/09/12 00:17:38;;;;;;;7.10;4.82;;;;;;;6.84;100.00;93207.47;2107018;28;20065;-78
2022/09/12 00:18:39;;;;;;;8.20;5.03;;;;;;;6.75;100.00;93208.66;2115822;27;20038;-77
2022/09/12 00:19:40;;;;;;;8.15;4.82;;;;;;;6.73;100.00;93212.88;2123519;27;20054;-77
2022/09/12 00:20:45;;;;;;;6.65;4.93;;;;;;;6.75;100.00;93221.19;2123643;27;20419;-80
2022/09/12 00:21:46;;;;;;;6.25;4.80;;;;;;;6.76;100.00;93212.06;2122855;27;20079;-77
2022/09/12 00:22:47;;;;;;;5.40;4.88;;;;;;;6.72;100.00;93214.78;2121860;27;20088;-77
2022/09/12 00:23:49;;;;;;;6.53;4.90;;;;;;;6.71;100.00;93215.16;2115791;27;20365;-78
2022/09/12 00:24:50;;;;;;;9.07;4.70;;;;;;;6.86;100.00;93213.94;2114209;27;20106;-77
2022/09/12 00:25:52;;;;;;;7.05;4.60;;;;;;;6.77;100.00;93210.94;2121780;27;20401;-78
2022/09/12 00:26:53;;;;;;;8.32;5.20;;;;;;;6.63;100.00;93211.00;2121782;27;20023;-77
2022/09/12 00:27:54;;;;;;;7.10;4.47;;;;;;;6.63;100.00;93216.31;2121733;27;20039;-76
2022/09/12 00:28:55;;;;;;;8.48;4.90;;;;;;;6.64;100.00;93212.53;2121498;27;20034;-77
2022/09/12 00:29:56;;;;;;;7.53;4.82;;;;;;;6.68;100.00;93211.38;2121561;27;20051;-78
2022/09/12 00:30:57;;;;;;;4.70;4.20;;;;;;;6.65;100.00;93222.03;2121825;27;20496;-77
2022/09/12 00:31:58;;;;;;;5.35;4.40;;;;;;;6.59;100.00;93203.09;2121851;27;20034;-77
2022/09/12 00:32:59;;;;;;;6.70;5.03;;;;;;;6.62;100.00;93210.25;2123338;27;20030;-79
2022/09/12 00:34:00;;;;;;;7.70;5.22;;;;;;;6.64;100.00;93213.28;2124128;27;20034;-77
2022/09/12 00:35:02;;;;;;;6.05;4.68;;;;;;;6.56;100.00;93209.16;2122572;27;20071;-79
2022/09/12 00:36:14;;;;;;;5.45;4.95;;;;;;;6.53;100.00;93209.94;2123418;27;20031;-77
2022/09/12 00:37:15;;;;;;;7.97;4.93;;;;;;;6.55;100.00;93205.75;2119851;27;20046;-79
2022/09/12 00:38:16;;;;;;;7.10;4.80;;;;;;;6.59;100.00;93200.44;2122470;27;20027;-78
2022/09/12 00:39:18;;;;;;;8.90;5.05;;;;;;;6.59;100.00;93199.69;2123810;27;20030;-79
2022/09/12 00:40:19;;;;;;;5.93;4.75;;;;;;;6.57;100.00;93206.09;2123655;27;20031;-77
2022/09/12 00:41:22;;;;;;;6.28;4.53;;;;;;;6.52;100.00;93203.09;2115417;28;20024;-77
2022/09/12 00:42:23;;;;;;;5.82;4.25;;;;;;;6.50;100.00;93205.41;2113460;28;20565;-78
2022/09/12 00:43:43;;;;;;;5.20;4.65;;;;;;;6.53;100.00;93197.41;2112808;27;20031;-77
2022/09/12 00:44:49;;;;;;;8.35;4.70;;;;;;;6.51;100.00;93201.59;2117822;27;20043;-77
2022/09/12 00:45:50;;;;;;;6.45;4.80;;;;;;;6.54;100.00;93201.59;2121388;27;20697;-77
2022/09/12 00:46:58;;;;;;;8.93;5.07;;;;;;;6.54;100.00;93201.59;2123336;27;20027;-77
2022/09/12 00:48:03;;;;;;;6.55;4.30;;;;;;;6.54;100.00;93200.81;2122473;27;20531;-77
2022/09/12 00:49:27;;;;;;;8.02;4.75;;;;;;;6.49;100.00;93201.22;2121472;27;20023;-77
2022/09/12 00:50:31;;;;;;;9.55;4.55;;;;;;;6.46;100.00;93202.00;2121024;27;20015;-78
2022/09/12 00:51:35;;;;;;;4.90;4.45;;;;;;;6.42;100.00;93202.03;2123057;27;20027;-77
2022/09/12 00:52:41;;;;;;;5.97;4.32;;;;;;;6.50;100.00;93197.44;2114145;27;20481;-78
2022/09/12 00:53:43;;;;;;;8.10;4.28;;;;;;;6.51;100.00;93197.03;2118061;27;20227;-77
2022/09/12 00:54:50;;;;;;;5.50;4.22;;;;;;;6.50;100.00;93200.84;2118857;27;20034;-77
2022/09/12 00:55:52;;;;;;;5.97;4.25;;;;;;;6.50;100.00;93200.09;2121959;27;20792;-78
2022/09/12 00:56:57;;;;;;;6.88;4.55;;;;;;;6.46;100.00;93194.81;2122605;27;20039;-80
2022/09/12 00:58:05;;;;;;;10.75;4.97;;;;;;;6.46;100.00;93200.09;2122368;27;20031;-78
2022/09/12 00:59:12;;;;;;;4.75;4.22;;;;;;;6.49;100.00;93201.97;2111913;28;20059;-78
2022/09/12 01:00:15;;;;;;;6.57;4.50;;;;;;;6.52;100.00;93197.81;2113846;27;20024;-80
2022/09/12 01:01:16;;;;;;;7.53;4.80;;;;;;;6.45;100.00;93189.84;2120522;27;20113;-79
2022/09/12 01:02:17;;;;;;;7.40;4.47;;;;;;;6.52;100.00;93201.22;2109698;28;20097;-78
2022/09/12 01:03:21;;;;;;;6.47;4.28;;;;;;;6.55;100.00;93197.78;2121477;27;20106;-78
2022/09/12 01:04:24;;;;;;;6.28;4.50;;;;;;;6.49;100.00;93195.91;2120710;27;20039;-78
2022/09/12 01:05:28;;;;;;;4.90;4.40;;;;;;;6.49;100.00;93201.97;2121387;27;20054;-78
2022/09/12 01:06:38;;;;;;;5.13;4.40;;;;;;;6.46;100.00;93197.47;2122294;27;20031;-79
2022/09/12 01:07:40;;;;;;;8.25;4.80;;;;;;;6.41;100.00;93199.75;2121386;27;20037;-78
2022/09/12 01:08:43;;;;;;;5.28;4.60;;;;;;;6.33;100.00;93196.38;2121264;27;20042;-79
2022/09/12 01:09:45;;;;;;;6.47;4.28;;;;;;;6.49;100.00;93193.25;2121773;27;20042;-77
2022/09/12 01:10:47;;;;;;;5.57;4.22;;;;;;;6.32;100.00;93192.19;2122521;27;20092;-78
2022/09/12 01:11:49;;;;;;;6.25;4.57;;;;;;;6.32;100.00;93192.19;2122649;27;20108;-79
2022/09/12 01:12:50;;;;;;;10.30;4.32;;;;;;;6.39;100.00;93191.41;2113468;28;20103;-79
2022/09/12 01:13:51;;;;;;;4.95;4.55;;;;;;;6.33;100.00;93191.06;2105215;27;20061;-78
2022/09/12 01:14:52;;;;;;;6.85;4.40;;;;;;;6.34;100.00;93189.16;2121533;27;20498;-78
2022/09/12 01:15:54;;;;;;;6.18;5.00;;;;;;;6.28;100.00;93186.91;2121877;27;20031;-79
2022/09/12 01:16:55;;;;;;;9.75;4.93;;;;;;;6.26;100.00;93188.44;2122436;27;20039;-79
2022/09/12 01:18:06;;;;;;;7.60;4.28;;;;;;;6.28;100.00;93191.47;2122823;27;20118;-78
2022/09/12 01:19:17;;;;;;;5.07;4.50;;;;;;;6.31;100.00;93190.69;2122106;27;20058;-78
2022/09/12 01:20:39;;;;;;;12.75;4.45;;;;;;;6.24;100.00;93183.53;2120128;27;20034;-78
2022/09/12 01:22:01;;;;;;;6.75;3.88;;;;;;;6.27;100.00;93190.69;2117879;27;20143;-77
2022/09/12 01:23:34;;;;;;;4.93;4.40;;;;;;;6.26;100.00;93183.13;2117895;27;20128;-78
2022/09/12 01:24:53;;;;;;;6.28;4.30;;;;;;;6.26;100.00;93183.13;2118058;27;20831;-78
2022/09/12 01:26:32;;;;;;;5.90;4.40;;;;;;;6.24;100.00;93183.53;2121236;27;20431;-76
2022/09/12 01:28:01;;;;;;;4.30;3.85;;;;;;;6.24;100.00;93180.13;2118662;27;20071;-77
2022/09/12 01:29:40;;;;;;;5.78;3.92;;;;;;;6.19;100.00;93177.84;2121079;27;20119;-79
2022/09/12 01:30:45;;;;;;;4.47;4.07;;;;;;;6.21;100.00;93186.19;2119509;27;20035;-78
2022/09/12 01:32:28;;;;;;;4.93;3.78;;;;;;;6.20;100.00;93177.47;2122835;27;20046;-77
2022/09/12 01:33:57;;;;;;;4.80;3.80;;;;;;;6.13;100.00;93188.09;2118704;27;20066;-77
2022/09/12 01:35:11;;;;;;;7.15;3.85;;;;;;;6.17;100.00;93182.78;2121967;27;20453;-79
2022/09/12 01:36:33;;;;;;;8.07;4.25;;;;;;;6.18;100.00;93179.00;2121083;27;20027;-78
2022/09/12 01:38:04;;;;;;;5.13;3.95;;;;;;;6.09;100.00;93186.59;2121321;27;20034;-77
2022/09/12 01:39:43;;;;;;;5.35;3.90;;;;;;;6.15;100.00;93179.78;2118164;27;20035;-78
2022/09/12 01:40:57;;;;;;;4.03;3.63;;;;;;;6.14;100.00;93170.28;2119153;27;20856;-78
2022/09/12 01:42:12;;;;;;;6.90;3.28;;;;;;;6.11;100.00;93165.78;2118429;27;20437;-76
2022/09/12 01:43:23;;;;;;;7.13;4.40;;;;;;;6.13;100.00;93168.78;2121167;27;20023;-78
2022/09/12 01:44:48;;;;;;;5.10;3.58;;;;;;;6.03;100.00;93165.78;2117822;27;20023;-77
2022/09/12 01:46:13;;;;;;;11.05;4.60;;;;;;;6.06;100.00;93166.94;2117684;27;20042;-81
2022/09/12 01:47:23;;;;;;;6.60;3.75;;;;;;;5.98;100.00;93154.81;2122765;27;20110;-77
2022/09/12 01:48:30;;;;;;;5.82;4.55;;;;;;;5.89;100.00;93165.81;2115028;28;20066;-79
2022/09/12 01:49:45;;;;;;;5.55;4.10;;;;;;;6.07;100.00;93152.50;2121767;27;20512;-78
2022/09/12 01:51:11;;;;;;;4.68;4.22;;;;;;;6.07;100.00;93155.16;2122114;27;20035;-78
2022/09/12 01:52:24;;;;;;;5.38;3.70;;;;;;;6.07;100.00;93154.41;2107829;27;20114;-78
2022/09/12 01:53:31;;;;;;;6.60;4.05;;;;;;;6.04;100.00;93148.72;2119134;27;20023;-81
2022/09/12 01:54:41;;;;;;;4.65;3.92;;;;;;;5.99;100.00;93158.97;2121811;27;20371;-77
2022/09/12 01:55:54;;;;;;;4.03;3.38;;;;;;;5.97;100.00;93155.94;2120380;27;20197;-79
2022/09/12 01:56:59;;;;;;;11.18;4.80;;;;;;;5.90;100.00;93156.72;2118886;27;20043;-78
2022/09/12 01:58:12;;;;;;;4.60;4.07;;;;;;;5.96;100.00;93151.78;2124306;27;20110;-77
2022/09/12 01:59:25;;;;;;;4.80;3.95;;;;;;;5.99;100.00;93143.06;2120625;27;20103;-77
2022/09/12 02:00:26;;;;;;;9.38;3.85;;;;;;;5.99;100.00;93151.78;2123466;27;20461;-77
2022/09/12 02:01:32;;;;;;;4.57;3.67;;;;;;;5.92;100.00;93157.09;2122389;27;20372;-76
2022/09/12 02:03:01;;;;;;;6.82;3.83;;;;;;;5.95;100.00;93153.69;2116255;27;20522;-77
2022/09/12 02:04:14;;;;;;;6.10;3.47;;;;;;;5.87;100.00;93154.06;2116096;27;20523;-77
2022/09/12 02:05:19;;;;;;;5.85;3.88;;;;;;;5.89;100.00;93149.16;2117432;27;20346;-78
2022/09/12 02:06:26;;;;;;;4.53;3.50;;;;;;;5.90;100.00;93154.06;2121430;27;20027;-78
2022/09/12 02:07:57;;;;;;;12.25;3.85;;;;;;;5.91;100.00;93152.16;2114132;28;20423;-78
2022/09/12 02:09:07;;;;;;;8.73;4.10;;;;;;;5.94;100.00;93143.47;2120184;27;20518;-77
2022/09/12 02:10:22;;;;;;;5.57;3.92;;;;;;;5.94;100.00;93152.19;2121758;27;20038;-76
2022/09/12 02:11:23;;;;;;;5.72;3.97;;;;;;;5.94;100.00;93143.47;2113672;27;20355;-79
2022/09/12 02:12:30;;;;;;;6.18;3.50;;;;;;;5.88;100.00;93152.91;2120744;27;20031;-78
2022/09/12 02:15:28;;;;;;;;;;;;;;;5.89;100.00;93138.53;2146913;27;21058;-75
2022/09/12 02:16:43;;;;;;;9.55;4.55;;;;;;;5.76;100.00;93144.25;2126086;27;20532;-78
2022/09/12 02:17:48;;;;;;;7.63;4.82;;;;;;;5.82;100.00;93144.59;2125178;27;20031;-77
2022/09/12 02:18:57;;;;;;;8.80;4.53;;;;;;;5.86;100.00;93148.00;2128501;27;20027;-78
2022/09/12 02:20:05;;;;;;;5.97;4.67;;;;;;;5.80;100.00;93131.75;2133453;27;20037;-76
2022/09/12 02:21:07;;;;;;;6.97;4.70;;;;;;;5.84;100.00;93145.00;2141311;27;20550;-78
2022/09/12 02:22:13;;;;;;;6.90;4.78;;;;;;;5.89;100.00;93138.53;2132937;27;20425;-79
2022/09/12 02:23:21;;;;;;;5.30;4.32;;;;;;;5.71;100.00;93136.69;2129283;27;20031;-77
2022/09/12 02:24:28;;;;;;;8.27;4.57;;;;;;;5.81;100.00;93137.78;2134247;27;20034;-78
2022/09/12 02:25:29;;;;;;;5.18;4.47;;;;;;;5.70;100.00;93137.81;2129021;27;20049;-78
2022/09/12 02:26:40;;;;;;;4.78;4.28;;;;;;;5.79;100.00;93137.41;2120439;27;20380;-78
2022/09/12 02:27:47;;;;;;;5.50;4.57;;;;;;;5.80;100.00;93136.28;2117802;28;20034;-77
2022/09/12 02:28:48;;;;;;;7.28;4.10;;;;;;;5.79;100.00;93134.75;2108925;28;20024;-77
2022/09/12 02:29:49;;;;;;;8.27;4.30;;;;;;;5.78;100.00;93135.91;2111941;27;20062;-79
2022/09/12 02:31:06;;;;;;;8.07;4.22;;;;;;;5.80;100.00;93129.09;2134179;27;20495;-77
2022/09/12 02:32:26;;;;;;;7.13;3.83;;;;;;;5.80;100.00;93131.75;2144338;27;20026;-80
2022/09/12 02:33:43;;;;;;;6.68;3.90;;;;;;;5.80;100.00;93126.44;2138736;27;20428;-78
2022/09/12 02:34:58;;;;;;;5.32;3.45;;;;;;;5.79;100.00;93138.19;2137706;27;20026;-80
2022/09/12 02:36:22;;;;;;;8.73;3.80;;;;;;;5.78;100.00;93133.25;2127241;27;20035;-78
2022/09/12 02:37:58;;;;;;;5.30;3.67;;;;;;;5.75;100.00;93134.78;2132775;27;20030;-79
2022/09/12 02:38:59;;;;;;;4.32;3.75;;;;;;;5.79;100.00;93134.75;2138760;27;20034;-77
2022/09/12 02:40:02;;;;;;;4.65;3.70;;;;;;;5.75;100.00;93136.66;2112156;28;20484;-77
2022/09/12 02:41:03;;;;;;;4.38;3.78;;;;;;;5.72;100.00;93134.81;2111880;27;20467;-77
2022/09/12 02:42:04;;;;;;;6.80;3.92;;;;;;;5.69;100.00;93128.34;2128384;27;20023;-81
2022/09/12 02:43:06;;;;;;;6.63;3.80;;;;;;;5.71;100.00;93133.28;2143714;27;20018;-80
2022/09/12 02:44:07;;;;;;;6.00;4.13;;;;;;;5.67;100.00;93127.25;2139243;27;20022;-80
2022/09/12 02:45:09;;;;;;;5.65;3.85;;;;;;;5.71;100.00;93133.28;2142842;27;20340;-81
2022/09/12 02:46:21;;;;;;;4.63;4.22;;;;;;;5.70;100.00;93123.81;2142279;27;20026;-78
2022/09/12 02:47:27;;;;;;;4.57;3.50;;;;;;;5.71;100.00;93128.00;2133505;27;20037;-78
2022/09/12 02:48:32;;;;;;;4.72;3.38;;;;;;;5.67;100.00;93127.25;2134476;27;20106;-79
2022/09/12 02:49:34;;;;;;;3.90;3.50;;;;;;;5.63;100.00;93123.84;2131257;27;20464;-79
2022/09/12 02:50:36;;;;;;;5.00;3.50;;;;;;;5.51;100.00;93123.09;2120032;27;20031;-79
2022/09/12 02:51:37;;;;;;;7.00;3.35;;;;;;;5.49;100.00;93132.59;2128088;27;20101;-78
2022/09/12 02:52:40;;;;;;;4.93;3.83;;;;;;;5.61;100.00;93126.84;2138579;27;20448;-77
2022/09/12 02:53:41;;;;;;;6.57;3.83;;;;;;;5.67;100.00;93127.25;2142561;27;20660;-77
2022/09/12 02:54:43;;;;;;;4.50;3.60;;;;;;;5.67;100.00;93125.34;2140090;27;20438;-78
2022/09/12 02:55:44;;;;;;;7.13;3.92;;;;;;;5.66;100.00;93120.41;2132394;27;20034;-79
2022/09/12 02:56:45;;;;;;;5.00;3.85;;;;;;;5.66;100.00;93120.41;2132132;27;20059;-79
2022/09/12 02:57:46;;;;;;;3.97;3.58;;;;;;;5.54;100.00;93118.94;2132277;27;20026;-78
2022/09/12 02:58:47;;;;;;;3.38;3.08;;;;;;;5.67;100.00;93117.38;2132498;27;20135;-80
2022/09/12 02:59:52;;;;;;;4.00;3.47;;;;;;;5.62;100.00;93117.78;2133165;27;20427;-79
2022/09/12 03:01:05;;;;;;;4.20;3.75;;;;;;;5.64;100.00;93120.03;2124279;27;20054;-79
2022/09/12 03:02:17;;;;;;;6.03;3.67;;;;;;;5.61;100.00;93115.50;2134629;27;20038;-77
2022/09/12 03:03:46;;;;;;;4.45;3.67;;;;;;;5.67;100.00;93119.28;2133691;27;20025;-77
2022/09/12 03:05:17;;;;;;;4.93;3.45;;;;;;;5.58;100.00;93121.59;2134793;27;20480;-78
2022/09/12 03:06:43;;;;;;;7.63;2.85;;;;;;;5.56;100.00;93121.94;2128919;27;20045;-79
2022/09/12 03:08:06;;;;;;;3.97;2.97;;;;;;;5.61;100.00;93118.16;2131884;27;20037;-79
2022/09/12 03:09:14;;;;;;;6.43;3.95;;;;;;;5.55;100.00;93123.09;2139393;27;20029;-78
2022/09/12 03:10:39;;;;;;;3.50;3.20;;;;;;;5.54;100.00;93121.59;2140091;27;20036;-80
2022/09/12 03:12:01;;;;;;;6.43;3.35;;;;;;;5.55;100.00;93123.84;2128573;27;20117;-77
2022/09/12 03:13:31;;;;;;;6.55;3.20;;;;;;;5.45;100.00;93116.69;2135623;27;20032;-77
2022/09/12 03:14:37;;;;;;;3.17;2.80;;;;;;;5.47;100.00;93118.94;2138132;27;20503;-78
2022/09/12 03:16:03;;;;;;;3.60;3.25;;;;;;;5.50;100.00;93123.50;2134182;27;20073;-82
2022/09/12 03:17:29;;;;;;;6.28;3.60;;;;;;;5.47;100.00;93125.00;2133899;27;20675;-78
2022/09/12 03:18:35;;;;;;;7.80;3.20;;;;;;;5.35;100.00;93122.75;2121063;28;20147;-80
2022/09/12 03:19:44;;;;;;;3.67;3.33;;;;;;;5.39;100.00;93118.19;2121788;27;20111;-78
2022/09/12 03:21:00;;;;;;;5.65;3.20;;;;;;;5.42;100.00;93119.34;2132122;27;20035;-80
2022/09/12 03:22:29;;;;;;;4.32;3.22;;;;;;;5.44;100.00;93119.72;2133632;27;20063;-78
2022/09/12 03:23:36;;;;;;;3.55;3.20;;;;;;;5.36;100.00;93121.63;2124386;27;20030;-82
2022/09/12 03:24:48;;;;;;;3.50;3.20;;;;;;;5.33;100.00;93122.41;2112040;28;20028;-85
2022/09/12 03:25:57;;;;;;;3.95;3.30;;;;;;;5.36;100.00;93123.53;2121566;27;20062;-79
2022/09/12 03:27:10;;;;;;;4.45;3.30;;;;;;;5.36;100.00;93118.25;2126992;27;20713;-78
2022/09/12 03:28:15;;;;;;;5.68;3.00;;;;;;;5.43;100.00;93126.91;2125594;27;20031;-79
2022/09/12 03:29:18;;;;;;;10.73;3.58;;;;;;;5.44;100.00;93123.13;2127019;27;20031;-79
2022/09/12 03:30:19;;;;;;;5.43;3.85;;;;;;;5.39;100.00;93133.34;2126871;27;20034;-79
2022/09/12 03:31:21;;;;;;;5.07;3.58;;;;;;;5.35;100.00;93124.66;2127027;27;20019;-79
2022/09/12 03:32:44;;;;;;;4.93;3.80;;;;;;;5.40;100.00;93126.91;2126426;27;20027;-80
2022/09/12 03:33:45;;;;;;;7.03;3.65;;;;;;;5.40;100.00;93130.34;2126916;27;20117;-78
2022/09/12 03:34:46;;;;;;;4.78;4.10;;;;;;;5.31;100.00;93124.66;2127160;27;20059;-78
2022/09/12 03:35:49;;;;;;;4.25;3.85;;;;;;;5.33;100.00;93122.41;2112457;28;20031;-78
2022/09/12 03:36:50;;;;;;;6.18;4.05;;;;;;;5.32;100.00;93128.84;2118334;27;20030;-81
2022/09/12 03:37:52;;;;;;;5.00;3.85;;;;;;;5.34;100.00;93128.44;2127973;27;20515;-79
2022/09/12 03:38:53;;;;;;;4.95;4.22;;;;;;;5.35;100.00;93127.31;2127219;27;20066;-82
2022/09/12 03:39:54;;;;;;;7.47;4.05;;;;;;;5.33;100.00;93119.75;2126999;27;20015;-79
2022/09/12 03:40:55;;;;;;;6.10;3.97;;;;;;;5.35;100.00;93125.41;2112810;28;20024;-78
2022/09/12 03:41:56;;;;;;;4.45;3.90;;;;;;;5.36;100.00;93119.00;2122514;27;20027;-78
2022/09/12 03:42:57;;;;;;;4.45;3.47;;;;;;;5.38;100.00;93123.91;2122171;27;20097;-78
2022/09/12 03:43:58;;;;;;;6.53;4.00;;;;;;;5.31;100.00;93122.00;2113591;28;20370;-78
2022/09/12 03:44:59;;;;;;;4.47;4.00;;;;;;;5.23;100.00;93123.19;2120820;27;20035;-78
2022/09/12 03:46:00;;;;;;;4.53;3.63;;;;;;;5.29;100.00;93119.00;2123438;27;20023;-79
2022/09/12 03:47:01;;;;;;;3.97;3.60;;;;;;;5.22;100.00;93121.66;2128403;27;20126;-78
2022/09/12 03:48:03;;;;;;;4.00;3.60;;;;;;;5.19;100.00;93119.78;2126784;27;20051;-78
2022/09/12 03:49:04;;;;;;;4.97;3.40;;;;;;;5.23;100.00;93121.28;2126251;27;20075;-78
2022/09/12 03:50:06;;;;;;;5.55;3.58;;;;;;;5.24;100.00;93129.97;2125927;27;20095;-78
2022/09/12 03:51:08;;;;;;;3.78;3.40;;;;;;;5.20;100.00;93129.22;2126641;27;20286;-81
2022/09/12 03:52:09;;;;;;;6.40;3.38;;;;;;;5.17;100.00;93125.44;2126610;27;20083;-78
2022/09/12 03:53:10;;;;;;;7.60;3.72;;;;;;;5.23;100.00;93123.94;2126895;27;20023;-79
2022/09/12 03:54:13;;;;;;;5.25;3.88;;;;;;;5.24;100.00;93127.34;2127670;27;20025;-79
2022/09/12 03:55:14;;;;;;;7.43;3.88;;;;;;;5.16;100.00;93123.19;2129636;27;20023;-80
2022/09/12 03:56:15;;;;;;;4.00;3.60;;;;;;;5.13;100.00;93124.69;2120795;27;20041;-80
2022/09/12 03:57:16;;;;;;;4.70;3.67;;;;;;;5.14;100.00;93126.22;2129354;27;20801;-79
2022/09/12 03:58:17;;;;;;;5.80;3.42;;;;;;;5.10;100.00;93127.34;2126221;27;20033;-79
2022/09/12 03:59:19;;;;;;;10.90;3.60;;;;;;;5.11;100.00;93134.91;2127134;27;20023;-77
2022/09/12 04:00:21;;;;;;;7.28;3.63;;;;;;;5.13;100.00;93127.34;2128165;27;20043;-78
2022/09/12 04:01:23;;;;;;;4.82;3.90;;;;;;;5.15;100.00;93129.63;2113418;28;20053;-78
2022/09/12 04:02:24;;;;;;;4.70;2.90;;;;;;;5.15;100.00;93124.31;2113781;27;20055;-79
2022/09/12 04:03:25;;;;;;;3.97;3.58;;;;;;;5.17;100.00;93130.72;2124973;27;20019;-80
2022/09/12 04:04:26;;;;;;;3.72;3.13;;;;;;;5.12;100.00;93133.03;2125987;27;20030;-77
2022/09/12 04:05:27;;;;;;;6.97;3.22;;;;;;;5.14;100.00;93122.81;2127421;27;20033;-81
2022/09/12 04:06:28;;;;;;;10.55;3.40;;;;;;;5.09;100.00;93125.81;2127627;27;20030;-80
2022/09/12 04:07:29;;;;;;;3.50;3.20;;;;;;;5.06;100.00;93124.72;2127448;27;20058;-78
2022/09/12 04:08:30;;;;;;;4.32;3.20;;;;;;;5.10;100.00;93122.81;2126592;27;20337;-78
2022/09/12 04:09:31;;;;;;;3.95;3.00;;;;;;;5.09;100.00;93115.97;2130683;27;20061;-76
2022/09/12 04:10:32;;;;;;;2.92;2.67;;;;;;;5.08;100.00;93114.47;2125966;27;20031;-78
2022/09/12 04:11:34;;;;;;;3.22;2.92;;;;;;;5.11;100.00;93128.88;2122036;27;20031;-73
2022/09/12 04:12:35;;;;;;;5.70;2.97;;;;;;;5.12;100.00;93119.78;2118604;27;20434;-78
2022/09/12 04:13:38;;;;;;;3.17;2.88;;;;;;;5.15;100.00;93119.03;2126521;27;20059;-78
2022/09/12 04:14:39;;;;;;;7.45;3.05;;;;;;;5.13;100.00;93123.94;2122668;27;20401;-77
2022/09/12 04:15:40;;;;;;;3.45;3.15;;;;;;;5.15;100.00;93122.44;2126886;27;20058;-79
2022/09/12 04:16:42;;;;;;;3.03;2.72;;;;;;;5.15;100.00;93124.31;2122023;27;20042;-80
2022/09/12 04:17:43;;;;;;;3.45;2.72;;;;;;;5.13;100.00;93118.63;2120482;27;20468;-75
2022/09/12 04:18:45;;;;;;;4.45;3.00;;;;;;;5.11;100.00;93123.56;2116931;27;20019;-78
2022/09/12 04:19:45;;;;;;;5.38;2.58;;;;;;;5.09;100.00;93126.56;2122408;27;20522;-78
2022/09/12 04:20:46;;;;;;;3.50;3.20;;;;;;;5.08;100.00;93114.47;2121335;27;20035;-77
2022/09/12 04:21:48;;;;;;;5.82;3.25;;;;;;;5.11;100.00;93120.91;2124008;27;20032;-81
2022/09/12 04:22:49;;;;;;;3.15;2.85;;;;;;;5.10;100.00;93114.13;2126175;27;20486;-78
2022/09/12 04:23:50;;;;;;;2.70;2.47;;;;;;;5.03;100.00;93118.25;2126018;27;20064;-80
2022/09/12 04:24:51;;;;;;;3.13;2.83;;;;;;;5.09;100.00;93115.97;2116931;27;20119;-77
2022/09/12 04:25:57;;;;;;;3.00;2.80;;;;;;;5.09;100.00;93120.53;2125975;27;20496;-80
2022/09/12 04:26:58;;;;;;;3.25;2.72;;;;;;;5.07;100.00;93122.81;2127037;27;20058;-77
2022/09/12 04:27:59;;;;;;;4.65;2.78;;;;;;;5.05;100.00;93125.84;2127692;27;20026;-76
2022/09/12 04:29:00;;;;;;;5.45;3.50;;;;;;;4.99;100.00;93122.81;2127517;27;20042;-78
2022/09/12 04:30:01;;;;;;;3.33;3.03;;;;;;;5.01;100.00;93120.56;2118838;27;20023;-78
2022/09/12 04:31:08;;;;;;;3.33;3.03;;;;;;;4.97;100.00;93117.16;2120506;27;20039;-77
2022/09/12 04:32:09;;;;;;;2.80;2.60;;;;;;;5.02;100.00;93119.41;2128611;27;20035;-77
2022/09/12 04:33:09;;;;;;;4.85;3.08;;;;;;;5.08;100.00;93119.03;2130913;27;20551;-76
2022/09/12 04:34:10;;;;;;;4.53;2.95;;;;;;;4.99;100.00;93122.06;2122838;27;20030;-78
2022/09/12 04:35:12;;;;;;;3.78;2.80;;;;;;;4.98;100.00;93118.66;2112921;28;20023;-80
2022/09/12 04:36:16;;;;;;;3.63;2.92;;;;;;;4.96;100.00;93117.50;2120358;27;20103;-75
2022/09/12 04:37:17;;;;;;;3.70;2.88;;;;;;;4.95;100.00;93121.28;2123658;27;20049;-80
2022/09/12 04:38:18;;;;;;;3.30;3.00;;;;;;;4.94;100.00;93131.13;2124904;27;20058;-77
2022/09/12 04:39:19;;;;;;;3.70;2.78;;;;;;;4.96;100.00;93126.22;2125800;27;20034;-78
2022/09/12 04:40:20;;;;;;;8.73;3.45;;;;;;;4.95;100.00;93126.59;2124913;27;20471;-78
2022/09/12 04:41:29;;;;;;;4.70;3.15;;;;;;;4.96;100.00;93117.50;2126453;27;20026;-73
2022/09/12 04:42:30;;;;;;;3.15;2.85;;;;;;;4.99;100.00;93128.09;2126349;27;20086;-79
2022/09/12 04:43:31;;;;;;;3.33;2.85;;;;;;;5.01;100.00;93123.19;2126533;27;20428;-79
2022/09/12 04:44:32;;;;;;;3.25;2.95;;;;;;;4.95;100.00;93127.34;2125373;27;20452;-75
2022/09/12 04:45:33;;;;;;;5.25;2.90;;;;;;;4.94;100.00;93119.78;2122019;27;20035;-76
2022/09/12 04:46:37;;;;;;;4.35;2.88;;;;;;;4.94;100.00;93125.84;2127077;27;20029;-75
2022/09/12 04:47:38;;;;;;;4.85;3.08;;;;;;;4.92;100.00;93120.19;2120822;27;20400;-74
2022/09/12 04:48:39;;;;;;;6.47;3.03;;;;;;;4.87;100.00;93125.84;2122931;27;20031;-75
2022/09/12 04:49:40;;;;;;;4.43;3.30;;;;;;;4.92;100.00;93119.44;2122495;27;20101;-77
2022/09/12 04:50:41;;;;;;;5.82;3.15;;;;;;;5.03;100.00;93123.56;2105316;28;20694;-76
2022/09/12 04:51:42;;;;;;;6.07;3.03;;;;;;;5.00;100.00;93121.69;2109561;27;20035;-76
2022/09/12 04:52:49;;;;;;;5.75;3.05;;;;;;;4.99;100.00;93116.75;2117928;27;20034;-78
2022/09/12 04:53:51;;;;;;;3.97;2.80;;;;;;;4.94;100.00;93112.59;2109943;27;20123;-77
2022/09/12 04:54:52;;;;;;;3.05;2.85;;;;;;;4.95;100.00;93110.69;2120289;27;20034;-78
2022/09/12 04:55:53;;;;;;;5.07;3.22;;;;;;;4.94;100.00;93115.25;2117691;27;20742;-78
2022/09/12 04:56:54;;;;;;;4.30;3.20;;;;;;;4.96;100.00;93114.84;2123148;27;20027;-77
2022/09/12 04:57:55;;;;;;;3.97;3.17;;;;;;;4.96;100.00;93118.28;2123716;27;20086;-79
2022/09/12 04:58:59;;;;;;;3.35;3.05;;;;;;;4.89;100.00;93115.63;2122237;27;20087;-76
2022/09/12 05:00:03;;;;;;;3.30;3.00;;;;;;;4.82;100.00;93123.56;2123959;27;20058;-77
2022/09/12 05:01:12;;;;;;;3.47;2.90;;;;;;;4.84;100.00;93116.00;2122573;27;20033;-78
2022/09/12 05:02:13;;;;;;;3.58;3.03;;;;;;;4.85;100.00;93116.78;2119318;27;20106;-78
2022/09/12 05:03:15;;;;;;;3.72;3.30;;;;;;;4.86;100.00;93113.72;2123745;27;20031;-76
2022/09/12 05:04:16;;;;;;;4.22;3.55;;;;;;;4.86;100.00;93113.72;2123520;27;20064;-79
2022/09/12 05:05:17;;;;;;;3.30;3.00;;;;;;;4.87;100.00;93112.59;2120401;27;20039;-76
2022/09/12 05:06:21;;;;;;;3.35;3.05;;;;;;;4.93;100.00;93119.03;2119891;27;20032;-78
2022/09/12 05:07:22;;;;;;;6.85;3.65;;;;;;;4.95;100.00;93116.75;2124489;27;20023;-76
2022/09/12 05:08:23;;;;;;;4.10;3.17;;;;;;;4.85;100.00;93117.53;2123953;27;20026;-80
2022/09/12 05:09:24;;;;;;;3.70;3.40;;;;;;;4.92;100.00;93114.13;2127037;27;20019;-79
2022/09/12 05:10:25;;;;;;;4.75;3.17;;;;;;;4.93;100.00;93118.28;2123369;27;20384;-77
2022/09/12 05:11:29;;;;;;;4.47;3.45;;;;;;;4.95;100.00;93122.06;2121194;27;20063;-77
2022/09/12 05:12:30;;;;;;;3.45;2.95;;;;;;;4.96;100.00;93117.50;2122529;27;20016;-78
2022/09/12 05:13:32;;;;;;;4.30;3.20;;;;;;;5.01;100.00;93117.91;2123775;27;20030;-78
2022/09/12 05:14:33;;;;;;;5.47;2.80;;;;;;;4.98;100.00;93121.31;2123991;27;20035;-77